sensor_id;sensor_type;location;lat;lon;timestamp;pressure;altitude;pressure_sealevel;temperature;humidity
40574;BME280;26283;49.020;8.644;2023-04-27T00:01:38;99381.19;;;14.16;56.30
40574;BME280;26283;49.020;8.644;2023-04-27T00:04:03;99378.47;;;14.16;56.35
40574;BME280;26283;49.020;8.644;2023-04-27T00:06:29;99368.69;;;14.15;56.32
40574;BME280;26283;49.020;8.644;2023-04-27T00:08:54;99370.56;;;14.14;56.30
40574;BME280;26283;49.020;8.644;2023-04-27T00:11:20;99374.34;;;14.13;56.32
40574;BME280;26283;49.020;8.644;2023-04-27T00:13:45;99365.16;;;14.14;56.32
40574;BME280;26283;49.020;8.644;2023-04-27T00:16:11;99360.22;;;14.11;56.31
40574;BME280;26283;49.020;8.644;2023-04-27T00:18:36;99362.91;;;14.11;56.34
40574;BME280;26283;49.020;8.644;2023-04-27T00:21:02;99362.09;;;14.11;56.36
40574;BME280;26283;49.020;8.644;2023-04-27T00:23:27;99363.16;;;14.10;56.41
40574;BME280;26283;49.020;8.644;2023-04-27T00:25:53;99363.16;;;14.10;56.41
40574;BME280;26283;49.020;8.644;2023-04-27T00:28:18;99356.91;;;14.09;56.47
40574;BME280;26283;49.020;8.644;2023-04-27T00:30:44;99351.50;;;14.09;56.50
40574;BME280;26283;49.020;8.644;2023-04-27T00:33:09;99349.84;;;14.08;56.50
40574;BME280;26283;49.020;8.644;2023-04-27T00:35:35;99348.22;;;14.07;56.54
40574;BME280;26283;49.020;8.644;2023-04-27T00:38:00;99348.22;;;14.07;56.66
40574;BME280;26283;49.020;8.644;2023-04-27T00:40:26;99347.41;;;14.06;56.66
40574;BME280;26283;49.020;8.644;2023-04-27T00:42:51;99347.41;;;14.06;56.59
40574;BME280;26283;49.020;8.644;2023-04-27T00:45:17;99351.19;;;14.05;56.62
40574;BME280;26283;49.020;8.644;2023-04-27T00:47:43;99349.28;;;14.06;56.61
40574;BME280;26283;49.020;8.644;2023-04-27T00:50:09;99352.00;;;14.06;56.65
40574;BME280;26283;49.020;8.644;2023-04-27T00:52:36;99346.00;;;14.04;56.64
40574;BME280;26283;49.020;8.644;2023-04-27T00:55:02;99355.78;;;14.05;56.73
40574;BME280;26283;49.020;8.644;2023-04-27T00:57:29;99347.06;;;14.03;56.71
40574;BME280;26283;49.020;8.644;2023-04-27T00:59:54;99348.94;;;14.02;56.65
40574;BME280;26283;49.020;8.644;2023-04-27T01:02:20;99350.81;;;14.02;56.65
40574;BME280;26283;49.020;8.644;2023-04-27T01:04:47;99353.53;;;14.02;56.68
40574;BME280;26283;49.020;8.644;2023-04-27T01:07:16;99351.88;;;14.01;56.66
40574;BME280;26283;49.020;8.644;2023-04-27T01:09:41;99351.06;;;14.00;56.63
40574;BME280;26283;49.020;8.644;2023-04-27T01:12:07;99351.28;;;13.99;56.64
40574;BME280;26283;49.020;8.644;2023-04-27T01:14:32;99354.00;;;13.99;56.57
40574;BME280;26283;49.020;8.644;2023-04-27T01:16:58;99355.06;;;13.98;56.52
40574;BME280;26283;49.020;8.644;2023-04-27T01:19:23;99363.44;;;13.96;56.58
40574;BME280;26283;49.020;8.644;2023-04-27T01:21:49;99362.59;;;13.96;56.57
40574;BME280;26283;49.020;8.644;2023-04-27T01:24:14;99358.00;;;13.96;56.53
40574;BME280;26283;49.020;8.644;2023-04-27T01:26:40;99364.50;;;13.95;56.55
40574;BME280;26283;49.020;8.644;2023-04-27T01:29:06;99360.13;;;13.94;56.56
40574;BME280;26283;49.020;8.644;2023-04-27T01:31:31;99360.97;;;13.95;56.57
40574;BME280;26283;49.020;8.644;2023-04-27T01:33:56;99363.91;;;13.93;56.58
40574;BME280;26283;49.020;8.644;2023-04-27T01:36:22;99363.06;;;13.93;56.48
40574;BME280;26283;49.020;8.644;2023-04-27T01:38:47;99359.53;;;13.92;56.50
40574;BME280;26283;49.020;8.644;2023-04-27T01:41:12;99355.19;;;13.91;56.52
40574;BME280;26283;49.020;8.644;2023-04-27T01:43:38;99348.13;;;13.90;56.52
40574;BME280;26283;49.020;8.644;2023-04-27T01:46:08;99352.72;;;13.90;56.53
40574;BME280;26283;49.020;8.644;2023-04-27T01:48:34;99344.81;;;13.88;56.60
40574;BME280;26283;49.020;8.644;2023-04-27T01:51:00;99356.47;;;13.89;56.62
40574;BME280;26283;49.020;8.644;2023-04-27T01:53:25;99356.72;;;13.87;56.55
40574;BME280;26283;49.020;8.644;2023-04-27T01:55:50;99358.59;;;13.87;56.54
40574;BME280;26283;49.020;8.644;2023-04-27T01:58:16;99353.44;;;13.85;56.57
40574;BME280;26283;49.020;8.644;2023-04-27T02:00:41;99357.78;;;13.86;56.47
40574;BME280;26283;49.020;8.644;2023-04-27T02:03:06;99355.34;;;13.85;56.42
40574;BME280;26283;49.020;8.644;2023-04-27T02:05:32;99358.03;;;13.85;56.37
40574;BME280;26283;49.020;8.644;2023-04-27T02:07:57;99358.03;;;13.85;56.35
40574;BME280;26283;49.020;8.644;2023-04-27T02:10:23;99355.56;;;13.83;56.29
40574;BME280;26283;49.020;8.644;2023-04-27T02:12:48;99362.03;;;13.82;56.32
40574;BME280;26283;49.020;8.644;2023-04-27T02:15:13;99366.63;;;13.82;56.36
40574;BME280;26283;49.020;8.644;2023-04-27T02:17:39;99365.00;;;13.81;56.36
40574;BME280;26283;49.020;8.644;2023-04-27T02:20:05;99376.87;;;13.80;56.36
40574;BME280;26283;49.020;8.644;2023-04-27T02:22:31;99374.19;;;13.80;56.51
40574;BME280;26283;49.020;8.644;2023-04-27T02:24:56;99372.53;;;13.79;56.51
40574;BME280;26283;49.020;8.644;2023-04-27T02:27:22;99376.06;;;13.79;56.50
40574;BME280;26283;49.020;8.644;2023-04-27T02:29:47;99370.88;;;13.78;56.41
40574;BME280;26283;49.020;8.644;2023-04-27T02:32:12;99370.88;;;13.78;56.41
40574;BME280;26283;49.020;8.644;2023-04-27T02:34:38;99373.81;;;13.76;56.32
40574;BME280;26283;49.020;8.644;2023-04-27T02:37:03;99368.41;;;13.76;56.37
40574;BME280;26283;49.020;8.644;2023-04-27T02:39:29;99374.88;;;13.75;56.40
40574;BME280;26283;49.020;8.644;2023-04-27T02:41:54;99374.06;;;13.75;56.42
40574;BME280;26283;49.020;8.644;2023-04-27T02:44:19;99373.47;;;13.72;56.47
40574;BME280;26283;49.020;8.644;2023-04-27T02:46:45;99382.66;;;13.71;56.49
40574;BME280;26283;49.020;8.644;2023-04-27T02:49:10;99376.16;;;13.72;56.46
40574;BME280;26283;49.020;8.644;2023-04-27T02:51:35;99374.53;;;13.71;56.55
40574;BME280;26283;49.020;8.644;2023-04-27T02:54:01;99377.22;;;13.71;56.54
40574;BME280;26283;49.020;8.644;2023-04-27T02:56:26;99373.94;;;13.69;56.58
40574;BME280;26283;49.020;8.644;2023-04-27T02:58:52;99380.16;;;13.70;56.57
40574;BME280;26283;49.020;8.644;2023-04-27T03:01:17;99377.69;;;13.68;56.53
40574;BME280;26283;49.020;8.644;2023-04-27T03:03:45;99378.53;;;13.69;56.53
40574;BME280;26283;49.020;8.644;2023-04-27T03:06:13;99381.22;;;13.69;56.56
40574;BME280;26283;49.020;8.644;2023-04-27T03:08:39;99382.28;;;13.68;56.47
40574;BME280;26283;49.020;8.644;2023-04-27T03:11:05;99382.53;;;13.66;56.51
40574;BME280;26283;49.020;8.644;2023-04-27T03:13:30;99378.16;;;13.65;56.54
40574;BME280;26283;49.020;8.644;2023-04-27T03:16:02;99380.88;;;13.65;56.54
40574;BME280;26283;49.020;8.644;2023-04-27T03:18:28;99381.94;;;13.64;56.51
40574;BME280;26283;49.020;8.644;2023-04-27T03:20:53;99370.31;;;13.64;56.48
40574;BME280;26283;49.020;8.644;2023-04-27T03:23:18;99375.97;;;13.62;56.53
40574;BME280;26283;49.020;8.644;2023-04-27T03:25:44;99369.72;;;13.62;56.46
40574;BME280;26283;49.020;8.644;2023-04-27T03:28:09;99378.66;;;13.62;56.50
40574;BME280;26283;49.020;8.644;2023-04-27T03:30:38;99375.37;;;13.60;56.48
40574;BME280;26283;49.020;8.644;2023-04-27T03:33:03;99369.94;;;13.60;56.57
40574;BME280;26283;49.020;8.644;2023-04-27T03:35:28;99369.94;;;13.60;56.42
40574;BME280;26283;49.020;8.644;2023-04-27T03:37:54;99376.41;;;13.59;56.48
40574;BME280;26283;49.020;8.644;2023-04-27T03:40:19;99381.84;;;13.59;56.45
40574;BME280;26283;49.020;8.644;2023-04-27T03:42:44;99380.19;;;13.58;56.53
40574;BME280;26283;49.020;8.644;2023-04-27T03:45:10;99381.25;;;13.57;56.58
40574;BME280;26283;49.020;8.644;2023-04-27T03:47:36;99381.25;;;13.57;56.52
40574;BME280;26283;49.020;8.644;2023-04-27T03:50:02;99377.94;;;13.55;56.50
40574;BME280;26283;49.020;8.644;2023-04-27T03:52:28;99377.94;;;13.55;56.57
40574;BME280;26283;49.020;8.644;2023-04-27T03:54:53;99377.94;;;13.55;56.54
40574;BME280;26283;49.020;8.644;2023-04-27T03:57:18;99377.34;;;13.53;56.56
40574;BME280;26283;49.020;8.644;2023-04-27T03:59:44;99379.25;;;13.53;56.61
40574;BME280;26283;49.020;8.644;2023-04-27T04:02:10;99381.94;;;13.53;56.48
40574;BME280;26283;49.020;8.644;2023-04-27T04:04:35;99381.94;;;13.53;56.51
40574;BME280;26283;49.020;8.644;2023-04-27T04:07:01;99377.59;;;13.52;56.59
40574;BME280;26283;49.020;8.644;2023-04-27T04:09:26;99368.87;;;13.50;56.53
40574;BME280;26283;49.020;8.644;2023-04-27T04:11:51;99378.88;;;13.49;56.46
40574;BME280;26283;49.020;8.644;2023-04-27T04:14:17;99384.28;;;13.49;56.54
40574;BME280;26283;49.020;8.644;2023-04-27T04:16:42;99384.53;;;13.48;56.45
40574;BME280;26283;49.020;8.644;2023-04-27T04:19:07;99387.22;;;13.48;56.55
40574;BME280;26283;49.020;8.644;2023-04-27T04:21:33;99389.13;;;13.47;56.54
40574;BME280;26283;49.020;8.644;2023-04-27T04:24:01;99384.75;;;13.46;56.47
40574;BME280;26283;49.020;8.644;2023-04-27T04:26:26;99390.16;;;13.46;56.39
40574;BME280;26283;49.020;8.644;2023-04-27T04:28:51;99388.53;;;13.45;56.46
40574;BME280;26283;49.020;8.644;2023-04-27T04:31:17;99382.28;;;13.45;56.46
40574;BME280;26283;49.020;8.644;2023-04-27T04:33:42;99377.91;;;13.44;56.62
40574;BME280;26283;49.020;8.644;2023-04-27T04:36:08;99378.75;;;13.44;56.66
40574;BME280;26283;49.020;8.644;2023-04-27T04:38:35;99385.22;;;13.43;56.54
40574;BME280;26283;49.020;8.644;2023-04-27T04:41:00;99381.69;;;13.43;56.50
40574;BME280;26283;49.020;8.644;2023-04-27T04:43:26;99384.41;;;13.43;56.58
40574;BME280;26283;49.020;8.644;2023-04-27T04:45:52;99384.41;;;13.43;56.51
40574;BME280;26283;49.020;8.644;2023-04-27T04:48:18;99386.31;;;13.42;56.50
40574;BME280;26283;49.020;8.644;2023-04-27T04:50:44;99388.41;;;13.40;56.50
40574;BME280;26283;49.020;8.644;2023-04-27T04:53:10;99393.84;;;13.40;56.57
40574;BME280;26283;49.020;8.644;2023-04-27T04:55:35;99394.88;;;13.39;56.66
40574;BME280;26283;49.020;8.644;2023-04-27T04:58:00;99398.66;;;13.38;56.63
40574;BME280;26283;49.020;8.644;2023-04-27T05:00:26;99394.88;;;13.39;56.63
40574;BME280;26283;49.020;8.644;2023-04-27T05:02:51;99396.78;;;13.38;56.66
40574;BME280;26283;49.020;8.644;2023-04-27T05:05:17;99399.72;;;13.37;56.70
40574;BME280;26283;49.020;8.644;2023-04-27T05:07:42;99391.59;;;13.37;56.78
40574;BME280;26283;49.020;8.644;2023-04-27T05:10:08;99391.59;;;13.37;56.72
40574;BME280;26283;49.020;8.644;2023-04-27T05:12:33;99398.87;;;13.36;56.77
40574;BME280;26283;49.020;8.644;2023-04-27T05:14:59;99399.13;;;13.35;56.73
40574;BME280;26283;49.020;8.644;2023-04-27T05:17:25;99391.22;;;13.33;56.64
40574;BME280;26283;49.020;8.644;2023-04-27T05:19:50;99394.75;;;13.34;56.65
40574;BME280;26283;49.020;8.644;2023-04-27T05:22:16;99405.59;;;13.34;56.61
40574;BME280;26283;49.020;8.644;2023-04-27T05:24:41;99405.59;;;13.34;56.60
40574;BME280;26283;49.020;8.644;2023-04-27T05:27:06;99407.47;;;13.33;56.62
40574;BME280;26283;49.020;8.644;2023-04-27T05:29:32;99417.47;;;13.33;56.68
40574;BME280;26283;49.020;8.644;2023-04-27T05:31:57;99413.94;;;13.32;56.74
40574;BME280;26283;49.020;8.644;2023-04-27T05:34:25;99416.66;;;13.32;56.77
40574;BME280;26283;49.020;8.644;2023-04-27T05:36:51;99421.22;;;13.32;56.78
40574;BME280;26283;49.020;8.644;2023-04-27T05:39:16;99422.28;;;13.31;56.81
40574;BME280;26283;49.020;8.644;2023-04-27T05:41:41;99424.16;;;13.30;56.85
40574;BME280;26283;49.020;8.644;2023-04-27T05:44:07;99425.81;;;13.31;56.80
40574;BME280;26283;49.020;8.644;2023-04-27T05:46:32;99426.06;;;13.30;56.82
40574;BME280;26283;49.020;8.644;2023-04-27T05:48:58;99425.22;;;13.29;56.83
40574;BME280;26283;49.020;8.644;2023-04-27T05:51:24;99425.22;;;13.29;56.88
40574;BME280;26283;49.020;8.644;2023-04-27T05:53:49;99427.09;;;13.29;56.94
40574;BME280;26283;49.020;8.644;2023-04-27T05:56:15;99425.44;;;13.28;56.96
40574;BME280;26283;49.020;8.644;2023-04-27T05:58:40;99433.56;;;13.28;56.94
40574;BME280;26283;49.020;8.644;2023-04-27T06:01:06;99436.28;;;13.28;56.89
40574;BME280;26283;49.020;8.644;2023-04-27T06:03:32;99434.63;;;13.27;56.92
40574;BME280;26283;49.020;8.644;2023-04-27T06:05:58;99431.91;;;13.27;56.92
40574;BME280;26283;49.020;8.644;2023-04-27T06:08:24;99435.44;;;13.27;57.02
40574;BME280;26283;49.020;8.644;2023-04-27T06:10:50;99446.50;;;13.26;57.07
40574;BME280;26283;49.020;8.644;2023-04-27T06:13:16;99444.03;;;13.24;57.13
40574;BME280;26283;49.020;8.644;2023-04-27T06:15:42;99449.44;;;13.24;57.16
40574;BME280;26283;49.020;8.644;2023-04-27T06:18:07;99451.31;;;13.24;57.19
40574;BME280;26283;49.020;8.644;2023-04-27T06:20:33;99454.84;;;13.24;57.20
40574;BME280;26283;49.020;8.644;2023-04-27T06:22:59;99455.91;;;13.23;57.24
40574;BME280;26283;49.020;8.644;2023-04-27T06:25:25;99456.50;;;13.25;57.28
40574;BME280;26283;49.020;8.644;2023-04-27T06:27:53;99456.75;;;13.24;57.29
40574;BME280;26283;49.020;8.644;2023-04-27T06:30:18;99455.09;;;13.23;57.33
40574;BME280;26283;49.020;8.644;2023-04-27T06:32:44;99462.16;;;13.24;57.39
40574;BME280;26283;49.020;8.644;2023-04-27T06:35:10;99460.50;;;13.23;57.40
40574;BME280;26283;49.020;8.644;2023-04-27T06:37:38;99479.44;;;13.23;57.44
40574;BME280;26283;49.020;8.644;2023-04-27T06:40:04;99482.16;;;13.23;57.78
40574;BME280;26283;49.020;8.644;2023-04-27T06:42:29;99486.50;;;13.24;57.91
40574;BME280;26283;49.020;8.644;2023-04-27T06:44:55;99485.44;;;13.25;57.83
40574;BME280;26283;49.020;8.644;2023-04-27T06:47:21;99487.09;;;13.26;57.85
40574;BME280;26283;49.020;8.644;2023-04-27T06:49:47;99487.94;;;13.26;57.81
40574;BME280;26283;49.020;8.644;2023-04-27T06:52:12;99490.63;;;13.26;57.77
40574;BME280;26283;49.020;8.644;2023-04-27T06:54:38;99485.00;;;13.28;57.75
40574;BME280;26283;49.020;8.644;2023-04-27T06:57:03;99490.41;;;13.28;57.73
40574;BME280;26283;49.020;8.644;2023-04-27T06:59:28;99487.47;;;13.29;57.74
40574;BME280;26283;49.020;8.644;2023-04-27T07:01:54;99486.66;;;13.29;57.73
40574;BME280;26283;49.020;8.644;2023-04-27T07:04:19;99490.19;;;13.29;57.73
40574;BME280;26283;49.020;8.644;2023-04-27T07:06:45;99480.19;;;13.30;57.73
40574;BME280;26283;49.020;8.644;2023-04-27T07:09:10;99480.19;;;13.30;57.72
40574;BME280;26283;49.020;8.644;2023-04-27T07:11:35;99482.87;;;13.30;57.73
40574;BME280;26283;49.020;8.644;2023-04-27T07:14:01;99486.66;;;13.29;57.72
40574;BME280;26283;49.020;8.644;2023-04-27T07:16:26;99491.00;;;13.30;57.74
40574;BME280;26283;49.020;8.644;2023-04-27T07:18:51;99487.47;;;13.29;57.74
40574;BME280;26283;49.020;8.644;2023-04-27T07:21:17;99484.78;;;13.29;57.74
40574;BME280;26283;49.020;8.644;2023-04-27T07:23:42;99477.47;;;13.30;57.77
40574;BME280;26283;49.020;8.644;2023-04-27T07:26:08;99482.87;;;13.30;57.77
40574;BME280;26283;49.020;8.644;2023-04-27T07:28:34;99486.41;;;13.30;57.76
40574;BME280;26283;49.020;8.644;2023-04-27T07:31:00;99482.87;;;13.30;57.79
40574;BME280;26283;49.020;8.644;2023-04-27T07:33:25;99482.87;;;13.30;57.80
40574;BME280;26283;49.020;8.644;2023-04-27T07:35:52;99486.66;;;13.29;57.80
40574;BME280;26283;49.020;8.644;2023-04-27T07:38:18;99482.87;;;13.30;57.81
40574;BME280;26283;49.020;8.644;2023-04-27T07:40:43;99483.72;;;13.30;57.82
40574;BME280;26283;49.020;8.644;2023-04-27T07:43:10;99485.38;;;13.31;57.83
40574;BME280;26283;49.020;8.644;2023-04-27T07:45:36;99483.47;;;13.32;57.83
40574;BME280;26283;49.020;8.644;2023-04-27T07:48:04;99479.12;;;13.31;57.84
40574;BME280;26283;49.020;8.644;2023-04-27T07:50:30;99478.91;;;13.32;57.84
40574;BME280;26283;49.020;8.644;2023-04-27T07:52:56;99486.19;;;13.32;57.85
40574;BME280;26283;49.020;8.644;2023-04-27T07:55:23;99481.59;;;13.32;57.86
40574;BME280;26283;49.020;8.644;2023-04-27T07:57:49;99476.19;;;13.32;57.87
40574;BME280;26283;49.020;8.644;2023-04-27T08:00:15;99470.78;;;13.32;57.87
40574;BME280;26283;49.020;8.644;2023-04-27T08:02:40;99476.78;;;13.34;57.88
40574;BME280;26283;49.020;8.644;2023-04-27T08:05:06;99467.84;;;13.34;57.88
40574;BME280;26283;49.020;8.644;2023-04-27T08:07:33;99473.25;;;13.34;57.88
40574;BME280;26283;49.020;8.644;2023-04-27T08:09:58;99473.25;;;13.34;57.89
40574;BME280;26283;49.020;8.644;2023-04-27T08:12:23;99478.44;;;13.35;57.91
40574;BME280;26283;49.020;8.644;2023-04-27T08:14:49;99468.44;;;13.36;57.92
40574;BME280;26283;49.020;8.644;2023-04-27T08:17:14;99466.56;;;13.36;57.91
40574;BME280;26283;49.020;8.644;2023-04-27T08:19:41;99468.22;;;13.37;57.92
40574;BME280;26283;49.020;8.644;2023-04-27T08:22:06;99464.44;;;13.38;57.92
40574;BME280;26283;49.020;8.644;2023-04-27T08:24:32;99453.84;;;13.37;57.92
40574;BME280;26283;49.020;8.644;2023-04-27T08:26:57;99472.34;;;13.40;57.91
40574;BME280;26283;49.020;8.644;2023-04-27T08:29:23;99458.81;;;13.40;57.91
40574;BME280;26283;49.020;8.644;2023-04-27T08:31:49;99464.00;;;13.42;57.90
40574;BME280;26283;49.020;8.644;2023-04-27T08:34:14;99468.09;;;13.44;57.90
40574;BME280;26283;49.020;8.644;2023-04-27T08:36:40;99459.13;;;13.44;57.86
40574;BME280;26283;49.020;8.644;2023-04-27T08:39:06;99460.56;;;13.46;57.85
40574;BME280;26283;49.020;8.644;2023-04-27T08:41:32;99458.44;;;13.48;57.47
40574;BME280;26283;49.020;8.644;2023-04-27T08:43:58;99461.28;;;13.53;57.14
40574;BME280;26283;49.020;8.644;2023-04-27T08:46:24;99454.34;;;13.57;56.62
40574;BME280;26283;49.020;8.644;2023-04-27T08:48:52;99453.88;;;13.60;56.57
40574;BME280;26283;49.020;8.644;2023-04-27T08:51:19;99454.25;;;13.64;56.31
40574;BME280;26283;49.020;8.644;2023-04-27T08:56:13;99453.44;;;13.75;56.25
40574;BME280;26283;49.020;8.644;2023-04-27T08:58:38;99455.19;;;13.81;56.20
40574;BME280;26283;49.020;8.644;2023-04-27T09:01:05;99450.16;;;13.85;56.11
40574;BME280;26283;49.020;8.644;2023-04-27T09:03:34;99460.47;;;13.88;55.63
40574;BME280;26283;49.020;8.644;2023-04-27T09:06:04;99452.72;;;13.91;54.92
40574;BME280;26283;49.020;8.644;2023-04-27T09:08:48;99461.19;;;13.95;54.79
40574;BME280;26283;49.020;8.644;2023-04-27T09:11:26;99465.56;;;13.96;54.19
40574;BME280;26283;49.020;8.644;2023-04-27T09:13:51;99461.31;;;14.00;54.12
40574;BME280;26283;49.020;8.644;2023-04-27T09:16:22;99465.22;;;14.04;54.07
40574;BME280;26283;49.020;8.644;2023-04-27T09:18:47;99465.53;;;14.07;53.80
40574;BME280;26283;49.020;8.644;2023-04-27T09:21:21;99465.66;;;14.13;53.80
40574;BME280;26283;49.020;8.644;2023-04-27T09:23:47;99464.38;;;14.15;53.71
40574;BME280;26283;49.020;8.644;2023-04-27T09:26:21;99470.97;;;14.19;53.77
40574;BME280;26283;49.020;8.644;2023-04-27T09:28:49;99479.22;;;14.24;53.75
40574;BME280;26283;49.020;8.644;2023-04-27T09:31:15;99472.50;;;14.27;53.81
40574;BME280;26283;49.020;8.644;2023-04-27T09:33:42;99475.81;;;14.29;53.81
40574;BME280;26283;49.020;8.644;2023-04-27T09:36:08;99472.84;;;14.30;53.85
40574;BME280;26283;49.020;8.644;2023-04-27T09:38:33;99469.41;;;14.35;53.86
40574;BME280;26283;49.020;8.644;2023-04-27T09:40:59;99460.56;;;14.39;53.77
40574;BME280;26283;49.020;8.644;2023-04-27T09:43:25;99462.38;;;14.46;53.96
40574;BME280;26283;49.020;8.644;2023-04-27T09:45:53;99462.44;;;14.51;54.09
40574;BME280;26283;49.020;8.644;2023-04-27T09:48:20;99453.84;;;14.54;54.09
40574;BME280;26283;49.020;8.644;2023-04-27T09:50:47;99452.78;;;14.55;53.75
40574;BME280;26283;49.020;8.644;2023-04-27T09:53:16;99453.38;;;14.57;53.73
40574;BME280;26283;49.020;8.644;2023-04-27T10:04:08;99450.41;;;14.70;53.19
40574;BME280;26283;49.020;8.644;2023-04-27T10:06:50;99458.63;;;14.75;53.23
40574;BME280;26283;49.020;8.644;2023-04-27T10:09:20;99450.00;;;14.78;53.35
40574;BME280;26283;49.020;8.644;2023-04-27T10:11:50;99451.41;;;14.81;52.82
40574;BME280;26283;49.020;8.644;2023-04-27T10:14:18;99452.59;;;14.85;52.88
40574;BME280;26283;49.020;8.644;2023-04-27T10:16:57;99450.81;;;14.90;52.48
40574;BME280;26283;49.020;8.644;2023-04-27T10:19:23;99447.09;;;14.96;52.41
40574;BME280;26283;49.020;8.644;2023-04-27T10:22:00;99448.84;;;15.02;52.39
40574;BME280;26283;49.020;8.644;2023-04-27T10:24:33;99434.31;;;15.08;51.98
40574;BME280;26283;49.020;8.644;2023-04-27T10:27:02;99437.13;;;15.14;51.92
40574;BME280;26283;49.020;8.644;2023-04-27T10:29:43;99441.56;;;15.20;51.96
40574;BME280;26283;49.020;8.644;2023-04-27T10:32:23;99440.34;;;15.27;51.55
40574;BME280;26283;49.020;8.644;2023-04-27T10:34:50;99439.63;;;15.32;51.20
40574;BME280;26283;49.020;8.644;2023-04-27T10:37:17;99441.03;;;15.34;51.12
40574;BME280;26283;49.020;8.644;2023-04-27T10:39:46;99438.88;;;15.36;51.00
40574;BME280;26283;49.020;8.644;2023-04-27T10:42:12;99438.06;;;15.36;50.88
40574;BME280;26283;49.020;8.644;2023-04-27T10:44:37;99438.63;;;15.38;51.02
40574;BME280;26283;49.020;8.644;2023-04-27T10:47:14;99439.19;;;15.40;51.19
40574;BME280;26283;49.020;8.644;2023-04-27T10:49:40;99449.22;;;15.39;51.00
40574;BME280;26283;49.020;8.644;2023-04-27T10:52:06;99445.16;;;15.37;51.29
40574;BME280;26283;49.020;8.644;2023-04-27T10:54:32;99444.56;;;15.35;51.55
40574;BME280;26283;49.020;8.644;2023-04-27T10:57:04;99439.38;;;15.33;51.70
40574;BME280;26283;49.020;8.644;2023-04-27T10:59:29;99436.91;;;15.32;51.66
40574;BME280;26283;49.020;8.644;2023-04-27T11:01:55;99441.50;;;15.31;51.69
40574;BME280;26283;49.020;8.644;2023-04-27T11:04:20;99434.19;;;15.32;51.72
40574;BME280;26283;49.020;8.644;2023-04-27T11:06:46;99429.81;;;15.31;51.74
40574;BME280;26283;49.020;8.644;2023-04-27T11:09:12;99433.38;;;15.31;51.80
40574;BME280;26283;49.020;8.644;2023-04-27T11:11:42;99427.09;;;15.31;51.79
40574;BME280;26283;49.020;8.644;2023-04-27T11:14:08;99429.56;;;15.32;51.84
40574;BME280;26283;49.020;8.644;2023-04-27T11:16:33;99428.50;;;15.33;51.84
40574;BME280;26283;49.020;8.644;2023-04-27T11:19:05;99434.75;;;15.34;51.88
40574;BME280;26283;49.020;8.644;2023-04-27T11:21:31;99426.38;;;15.35;51.88
40574;BME280;26283;49.020;8.644;2023-04-27T11:24:03;99433.69;;;15.35;51.87
40574;BME280;26283;49.020;8.644;2023-04-27T11:26:28;99433.47;;;15.36;51.90
40574;BME280;26283;49.020;8.644;2023-04-27T11:31:24;99436.72;;;15.38;51.88
40574;BME280;26283;49.020;8.644;2023-04-27T11:33:50;99423.97;;;15.39;51.83
40574;BME280;26283;49.020;8.644;2023-04-27T11:36:20;99424.53;;;15.41;51.85
40574;BME280;26283;49.020;8.644;2023-04-27T11:38:47;99422.66;;;15.41;51.86
40574;BME280;26283;49.020;8.644;2023-04-27T11:41:13;99423.25;;;15.43;51.84
40574;BME280;26283;49.020;8.644;2023-04-27T11:43:42;99418.62;;;15.44;51.81
40574;BME280;26283;49.020;8.644;2023-04-27T11:46:10;99414.84;;;15.45;51.79
40574;BME280;26283;49.020;8.644;2023-04-27T11:48:37;99407.53;;;15.46;51.81
40574;BME280;26283;49.020;8.644;2023-04-27T11:51:03;99403.50;;;15.48;51.79
40574;BME280;26283;49.020;8.644;2023-04-27T11:53:33;99398.63;;;15.50;51.79
40574;BME280;26283;49.020;8.644;2023-04-27T11:56:04;99408.44;;;15.51;51.75
40574;BME280;26283;49.020;8.644;2023-04-27T11:58:37;99399.22;;;15.52;51.71
40574;BME280;26283;49.020;8.644;2023-04-27T12:01:03;99395.44;;;15.53;51.71
40574;BME280;26283;49.020;8.644;2023-04-27T12:03:29;99400.88;;;15.53;51.72
40574;BME280;26283;49.020;8.644;2023-04-27T12:05:55;99393.28;;;15.55;51.70
40574;BME280;26283;49.020;8.644;2023-04-27T12:08:21;99383.03;;;15.57;51.66
40574;BME280;26283;49.020;8.644;2023-04-27T12:10:47;99400.97;;;15.58;51.64
40574;BME280;26283;49.020;8.644;2023-04-27T12:13:12;99389.84;;;15.60;51.61
40574;BME280;26283;49.020;8.644;2023-04-27T12:15:38;99381.44;;;15.61;51.60
40574;BME280;26283;49.020;8.644;2023-04-27T12:18:04;99388.53;;;15.62;51.57
40574;BME280;26283;49.020;8.644;2023-04-27T12:20:30;99380.12;;;15.64;51.57
40574;BME280;26283;49.020;8.644;2023-04-27T12:22:56;99389.94;;;15.65;51.52
40574;BME280;26283;49.020;8.644;2023-04-27T12:25:22;99376.34;;;15.65;51.46
40574;BME280;26283;49.020;8.644;2023-04-27T12:27:48;99378.00;;;15.66;51.50
40574;BME280;26283;49.020;8.644;2023-04-27T12:30:14;99381.28;;;15.68;51.48
40574;BME280;26283;49.020;8.644;2023-04-27T12:32:40;99375.84;;;15.68;51.46
40574;BME280;26283;49.020;8.644;2023-04-27T12:35:06;99378.31;;;15.69;51.47
40574;BME280;26283;49.020;8.644;2023-04-27T12:37:32;99369.09;;;15.70;51.45
40574;BME280;26283;49.020;8.644;2023-04-27T12:39:57;99373.47;;;15.71;51.43
40574;BME280;26283;49.020;8.644;2023-04-27T12:42:23;99376.19;;;15.71;51.46
40574;BME280;26283;49.020;8.644;2023-04-27T12:44:49;99365.88;;;15.73;51.44
40574;BME280;26283;49.020;8.644;2023-04-27T12:47:16;99367.78;;;15.73;51.39
40574;BME280;26283;49.020;8.644;2023-04-27T12:49:41;99376.50;;;15.75;51.38
40574;BME280;26283;49.020;8.644;2023-04-27T12:52:07;99366.47;;;15.75;51.36
40574;BME280;26283;49.020;8.644;2023-04-27T12:54:32;99361.84;;;15.76;51.36
40574;BME280;26283;49.020;8.644;2023-04-27T12:56:58;99367.03;;;15.77;51.36
40574;BME280;26283;49.020;8.644;2023-04-27T12:59:27;99361.34;;;15.79;51.36
40574;BME280;26283;49.020;8.644;2023-04-27T13:01:52;99363.78;;;15.81;51.36
40574;BME280;26283;49.020;8.644;2023-04-27T13:04:18;99365.44;;;15.82;51.34
40574;BME280;26283;49.020;8.644;2023-04-27T13:06:44;99363.53;;;15.82;51.35
40574;BME280;26283;49.020;8.644;2023-04-27T13:09:10;99357.88;;;15.84;51.35